sensor_id;sensor_type;location;lat;lon;timestamp;temperature;humidity
29203;DHT22;16245;51.170;4.884;2023-01-24T00:00:45;3.90;99.90
29203;DHT22;16245;51.170;4.884;2023-01-24T00:03:11;3.90;99.90
29203;DHT22;16245;51.170;4.884;2023-01-24T00:05:43;3.80;99.90
29203;DHT22;16245;51.170;4.884;2023-01-24T00:08:11;3.80;99.90
29203;DHT22;16245;51.170;4.884;2023-01-24T00:10:38;3.80;99.90
29203;DHT22;16245;51.170;4.884;2023-01-24T00:13:05;3.80;99.90
29203;DHT22;16245;51.170;4.884;2023-01-24T00:15:31;3.80;99.90
29203;DHT22;16245;51.170;4.884;2023-01-24T00:17:58;3.80;99.90
29203;DHT22;16245;51.170;4.884;2023-01-24T00:20:24;3.80;99.90
29203;DHT22;16245;51.170;4.884;2023-01-24T00:22:50;3.80;99.90
29203;DHT22;16245;51.170;4.884;2023-01-24T00:25:16;3.80;99.90
29203;DHT22;16245;51.170;4.884;2023-01-24T00:27:42;3.80;99.90
29203;DHT22;16245;51.170;4.884;2023-01-24T00:30:08;3.80;99.90
29203;DHT22;16245;51.170;4.884;2023-01-24T00:32:34;3.80;99.90
29203;DHT22;16245;51.170;4.884;2023-01-24T00:35:00;3.80;99.90
29203;DHT22;16245;51.170;4.884;2023-01-24T00:37:26;3.80;99.90
29203;DHT22;16245;51.170;4.884;2023-01-24T00:39:51;3.80;99.90
29203;DHT22;16245;51.170;4.884;2023-01-24T00:42:17;3.80;99.90
29203;DHT22;16245;51.170;4.884;2023-01-24T00:44:43;3.80;99.90
29203;DHT22;16245;51.170;4.884;2023-01-24T00:47:09;3.80;99.90
29203;DHT22;16245;51.170;4.884;2023-01-24T00:49:34;3.80;99.90
29203;DHT22;16245;51.170;4.884;2023-01-24T00:52:00;3.80;99.90
29203;DHT22;16245;51.170;4.884;2023-01-24T00:54:26;3.80;99.90
29203;DHT22;16245;51.170;4.884;2023-01-24T00:56:51;3.80;99.90
29203;DHT22;16245;51.170;4.884;2023-01-24T00:59:17;3.80;99.90
29203;DHT22;16245;51.170;4.884;2023-01-24T01:01:43;3.80;99.90
29203;DHT22;16245;51.170;4.884;2023-01-24T01:04:09;3.80;99.90
29203;DHT22;16245;51.170;4.884;2023-01-24T01:06:35;3.80;99.90
29203;DHT22;16245;51.170;4.884;2023-01-24T01:09:01;3.80;99.90
29203;DHT22;16245;51.170;4.884;2023-01-24T01:11:27;3.80;99.90
29203;DHT22;16245;51.170;4.884;2023-01-24T01:13:56;3.80;99.90
29203;DHT22;16245;51.170;4.884;2023-01-24T01:16:23;3.80;99.90
29203;DHT22;16245;51.170;4.884;2023-01-24T01:18:52;3.80;99.90
29203;DHT22;16245;51.170;4.884;2023-01-24T01:21:20;3.80;99.90
29203;DHT22;16245;51.170;4.884;2023-01-24T01:23:46;3.70;99.90
29203;DHT22;16245;51.170;4.884;2023-01-24T01:26:17;3.80;99.90
29203;DHT22;16245;51.170;4.884;2023-01-24T01:28:43;3.80;99.90
29203;DHT22;16245;51.170;4.884;2023-01-24T01:31:09;3.80;99.90
29203;DHT22;16245;51.170;4.884;2023-01-24T01:33:35;3.80;99.90
29203;DHT22;16245;51.170;4.884;2023-01-24T01:36:00;3.70;99.90
29203;DHT22;16245;51.170;4.884;2023-01-24T01:38:26;3.80;99.90
29203;DHT22;16245;51.170;4.884;2023-01-24T01:40:53;3.80;99.90
29203;DHT22;16245;51.170;4.884;2023-01-24T01:43:22;3.80;99.90
29203;DHT22;16245;51.170;4.884;2023-01-24T01:45:49;3.80;99.90
29203;DHT22;16245;51.170;4.884;2023-01-24T01:48:34;3.80;99.90
29203;DHT22;16245;51.170;4.884;2023-01-24T01:54:10;3.80;99.90
29203;DHT22;16245;51.170;4.884;2023-01-24T01:56:42;3.70;99.90
29203;DHT22;16245;51.170;4.884;2023-01-24T01:59:28;3.70;99.90
29203;DHT22;16245;51.170;4.884;2023-01-24T02:01:57;3.70;99.90
29203;DHT22;16245;51.170;4.884;2023-01-24T02:04:33;3.70;99.90
29203;DHT22;16245;51.170;4.884;2023-01-24T02:07:04;3.70;99.90
29203;DHT22;16245;51.170;4.884;2023-01-24T02:09:41;3.80;99.90
29203;DHT22;16245;51.170;4.884;2023-01-24T02:12:18;3.70;99.90
29203;DHT22;16245;51.170;4.884;2023-01-24T02:14:47;3.70;99.90
29203;DHT22;16245;51.170;4.884;2023-01-24T02:17:33;3.80;99.90
29203;DHT22;16245;51.170;4.884;2023-01-24T02:27:55;3.80;99.90
29203;DHT22;16245;51.170;4.884;2023-01-24T02:30:21;3.80;99.90
29203;DHT22;16245;51.170;4.884;2023-01-24T02:32:47;3.80;99.90
29203;DHT22;16245;51.170;4.884;2023-01-24T02:35:27;3.80;99.90
29203;DHT22;16245;51.170;4.884;2023-01-24T02:37:53;3.80;99.90
29203;DHT22;16245;51.170;4.884;2023-01-24T02:40:20;3.80;99.90
29203;DHT22;16245;51.170;4.884;2023-01-24T02:42:46;3.80;99.90
29203;DHT22;16245;51.170;4.884;2023-01-24T02:45:25;3.80;99.90
29203;DHT22;16245;51.170;4.884;2023-01-24T02:47:53;3.80;99.90
29203;DHT22;16245;51.170;4.884;2023-01-24T02:50:22;3.90;99.90
29203;DHT22;16245;51.170;4.884;2023-01-24T02:52:48;4.00;99.90
29203;DHT22;16245;51.170;4.884;2023-01-24T02:55:33;3.80;99.90
29203;DHT22;16245;51.170;4.884;2023-01-24T02:58:00;3.80;99.90
29203;DHT22;16245;51.170;4.884;2023-01-24T03:00:40;3.80;99.90
29203;DHT22;16245;51.170;4.884;2023-01-24T03:03:06;3.70;99.90
29203;DHT22;16245;51.170;4.884;2023-01-24T03:05:33;3.70;99.90
29203;DHT22;16245;51.170;4.884;2023-01-24T03:08:19;3.80;99.90
29203;DHT22;16245;51.170;4.884;2023-01-24T03:10:44;3.80;99.90
29203;DHT22;16245;51.170;4.884;2023-01-24T03:13:12;3.80;99.90
29203;DHT22;16245;51.170;4.884;2023-01-24T03:15:59;3.90;99.90
29203;DHT22;16245;51.170;4.884;2023-01-24T03:18:43;3.80;99.90
29203;DHT22;16245;51.170;4.884;2023-01-24T03:21:27;3.80;99.90
29203;DHT22;16245;51.170;4.884;2023-01-24T03:24:11;3.80;99.90
29203;DHT22;16245;51.170;4.884;2023-01-24T03:26:55;3.80;99.90
29203;DHT22;16245;51.170;4.884;2023-01-24T03:29:39;3.80;99.90
29203;DHT22;16245;51.170;4.884;2023-01-24T03:32:23;3.80;99.90
29203;DHT22;16245;51.170;4.884;2023-01-24T03:35:07;3.80;99.90
29203;DHT22;16245;51.170;4.884;2023-01-24T03:37:33;3.80;99.90
29203;DHT22;16245;51.170;4.884;2023-01-24T03:40:17;3.80;99.90
29203;DHT22;16245;51.170;4.884;2023-01-24T03:42:43;3.80;99.90
29203;DHT22;16245;51.170;4.884;2023-01-24T03:45:25;3.80;99.90
29203;DHT22;16245;51.170;4.884;2023-01-24T03:47:57;3.80;99.90
29203;DHT22;16245;51.170;4.884;2023-01-24T03:50:29;3.80;99.90
29203;DHT22;16245;51.170;4.884;2023-01-24T03:53:14;3.80;99.90
29203;DHT22;16245;51.170;4.884;2023-01-24T03:55:40;3.70;99.90
29203;DHT22;16245;51.170;4.884;2023-01-24T03:58:07;3.80;99.90
29203;DHT22;16245;51.170;4.884;2023-01-24T04:00:34;3.80;99.90
29203;DHT22;16245;51.170;4.884;2023-01-24T04:03:00;3.80;99.90
29203;DHT22;16245;51.170;4.884;2023-01-24T04:05:26;3.80;99.90
29203;DHT22;16245;51.170;4.884;2023-01-24T04:07:53;3.80;99.90
29203;DHT22;16245;51.170;4.884;2023-01-24T04:10:19;3.80;99.90
29203;DHT22;16245;51.170;4.884;2023-01-24T04:12:45;3.90;99.90
29203;DHT22;16245;51.170;4.884;2023-01-24T04:15:20;3.70;99.90
29203;DHT22;16245;51.170;4.884;2023-01-24T04:17:46;3.70;99.90
29203;DHT22;16245;51.170;4.884;2023-01-24T04:20:13;3.70;99.90
29203;DHT22;16245;51.170;4.884;2023-01-24T04:22:39;3.80;99.90
29203;DHT22;16245;51.170;4.884;2023-01-24T04:25:05;3.80;99.90
29203;DHT22;16245;51.170;4.884;2023-01-24T04:27:31;3.70;99.90
29203;DHT22;16245;51.170;4.884;2023-01-24T04:29:57;3.70;99.90
29203;DHT22;16245;51.170;4.884;2023-01-24T04:32:22;3.70;99.90
29203;DHT22;16245;51.170;4.884;2023-01-24T04:34:48;3.60;99.90
29203;DHT22;16245;51.170;4.884;2023-01-24T04:37:14;3.70;99.90
29203;DHT22;16245;51.170;4.884;2023-01-24T04:39:39;3.70;99.90
29203;DHT22;16245;51.170;4.884;2023-01-24T04:42:05;3.60;99.90
29203;DHT22;16245;51.170;4.884;2023-01-24T04:44:32;3.60;99.90
29203;DHT22;16245;51.170;4.884;2023-01-24T04:46:59;3.60;99.90
29203;DHT22;16245;51.170;4.884;2023-01-24T04:49:25;3.70;99.90
29203;DHT22;16245;51.170;4.884;2023-01-24T04:51:51;3.70;99.90
29203;DHT22;16245;51.170;4.884;2023-01-24T04:54:17;3.80;99.90
29203;DHT22;16245;51.170;4.884;2023-01-24T04:56:43;3.80;99.90
29203;DHT22;16245;51.170;4.884;2023-01-24T04:59:11;3.80;99.90
29203;DHT22;16245;51.170;4.884;2023-01-24T05:01:37;3.70;99.90
29203;DHT22;16245;51.170;4.884;2023-01-24T05:04:03;3.70;99.90
29203;DHT22;16245;51.170;4.884;2023-01-24T05:06:30;3.60;99.90
29203;DHT22;16245;51.170;4.884;2023-01-24T05:08:56;3.70;99.90
29203;DHT22;16245;51.170;4.884;2023-01-24T05:11:23;3.70;99.90
29203;DHT22;16245;51.170;4.884;2023-01-24T05:13:49;3.80;99.90
29203;DHT22;16245;51.170;4.884;2023-01-24T05:16:15;3.70;99.90
29203;DHT22;16245;51.170;4.884;2023-01-24T05:18:41;3.70;99.90
29203;DHT22;16245;51.170;4.884;2023-01-24T05:21:17;3.70;99.90
29203;DHT22;16245;51.170;4.884;2023-01-24T05:23:43;3.80;99.90
29203;DHT22;16245;51.170;4.884;2023-01-24T05:26:12;3.80;99.90
29203;DHT22;16245;51.170;4.884;2023-01-24T05:28:38;3.60;99.90
29203;DHT22;16245;51.170;4.884;2023-01-24T05:31:05;3.60;99.90
29203;DHT22;16245;51.170;4.884;2023-01-24T05:33:35;3.50;99.90
29203;DHT22;16245;51.170;4.884;2023-01-24T05:36:04;3.60;99.90
29203;DHT22;16245;51.170;4.884;2023-01-24T05:38:31;3.50;99.90
29203;DHT22;16245;51.170;4.884;2023-01-24T05:41:01;3.50;99.90
29203;DHT22;16245;51.170;4.884;2023-01-24T05:43:28;3.60;99.90
29203;DHT22;16245;51.170;4.884;2023-01-24T05:46:02;3.60;99.90
29203;DHT22;16245;51.170;4.884;2023-01-24T05:48:28;3.50;99.90
29203;DHT22;16245;51.170;4.884;2023-01-24T05:51:07;3.60;99.90
29203;DHT22;16245;51.170;4.884;2023-01-24T05:53:36;3.60;99.90
29203;DHT22;16245;51.170;4.884;2023-01-24T05:56:05;3.60;99.90
29203;DHT22;16245;51.170;4.884;2023-01-24T05:58:36;3.70;99.90
29203;DHT22;16245;51.170;4.884;2023-01-24T06:01:21;3.60;99.90
29203;DHT22;16245;51.170;4.884;2023-01-24T06:03:50;3.60;99.90
29203;DHT22;16245;51.170;4.884;2023-01-24T06:06:17;3.60;99.90
29203;DHT22;16245;51.170;4.884;2023-01-24T06:08:44;3.60;99.90
29203;DHT22;16245;51.170;4.884;2023-01-24T06:11:18;3.70;99.90
29203;DHT22;16245;51.170;4.884;2023-01-24T06:13:45;3.70;99.90
29203;DHT22;16245;51.170;4.884;2023-01-24T06:16:22;3.70;99.90
29203;DHT22;16245;51.170;4.884;2023-01-24T06:18:49;3.70;99.90
29203;DHT22;16245;51.170;4.884;2023-01-24T06:24:04;3.50;99.90
29203;DHT22;16245;51.170;4.884;2023-01-24T06:26:31;3.50;99.90
29203;DHT22;16245;51.170;4.884;2023-01-24T06:28:57;3.50;99.90
29203;DHT22;16245;51.170;4.884;2023-01-24T06:31:50;3.50;99.90
29203;DHT22;16245;51.170;4.884;2023-01-24T06:34:24;3.40;99.90
29203;DHT22;16245;51.170;4.884;2023-01-24T06:37:04;3.50;99.90
29203;DHT22;16245;51.170;4.884;2023-01-24T06:39:33;3.50;99.90
29203;DHT22;16245;51.170;4.884;2023-01-24T06:42:00;3.50;99.90
29203;DHT22;16245;51.170;4.884;2023-01-24T06:44:26;3.50;99.90
29203;DHT22;16245;51.170;4.884;2023-01-24T06:46:51;3.60;99.90
29203;DHT22;16245;51.170;4.884;2023-01-24T06:49:17;3.50;99.90
29203;DHT22;16245;51.170;4.884;2023-01-24T06:51:51;3.40;99.90
29203;DHT22;16245;51.170;4.884;2023-01-24T06:54:17;3.40;99.90
29203;DHT22;16245;51.170;4.884;2023-01-24T06:56:43;3.60;99.90
29203;DHT22;16245;51.170;4.884;2023-01-24T06:59:08;3.60;99.90
29203;DHT22;16245;51.170;4.884;2023-01-24T07:01:34;3.60;99.90
29203;DHT22;16245;51.170;4.884;2023-01-24T07:04:00;3.50;99.90
29203;DHT22;16245;51.170;4.884;2023-01-24T07:06:25;3.50;99.90
29203;DHT22;16245;51.170;4.884;2023-01-24T07:08:52;3.50;99.90
29203;DHT22;16245;51.170;4.884;2023-01-24T07:11:18;3.30;99.90
29203;DHT22;16245;51.170;4.884;2023-01-24T07:13:44;3.40;99.90
29203;DHT22;16245;51.170;4.884;2023-01-24T07:16:10;3.40;99.90
29203;DHT22;16245;51.170;4.884;2023-01-24T07:18:36;3.50;99.90
29203;DHT22;16245;51.170;4.884;2023-01-24T07:21:07;3.40;99.90
29203;DHT22;16245;51.170;4.884;2023-01-24T07:23:34;3.40;99.90
29203;DHT22;16245;51.170;4.884;2023-01-24T07:26:00;3.40;99.90
29203;DHT22;16245;51.170;4.884;2023-01-24T07:28:26;3.40;99.90
29203;DHT22;16245;51.170;4.884;2023-01-24T07:30:53;3.40;99.90
29203;DHT22;16245;51.170;4.884;2023-01-24T07:33:19;3.40;99.90
29203;DHT22;16245;51.170;4.884;2023-01-24T07:35:45;3.30;99.90
29203;DHT22;16245;51.170;4.884;2023-01-24T07:38:10;3.40;99.90
29203;DHT22;16245;51.170;4.884;2023-01-24T07:40:39;3.40;99.90
29203;DHT22;16245;51.170;4.884;2023-01-24T07:43:05;3.40;99.90
29203;DHT22;16245;51.170;4.884;2023-01-24T07:45:32;3.40;99.90
29203;DHT22;16245;51.170;4.884;2023-01-24T07:48:00;3.40;99.90
29203;DHT22;16245;51.170;4.884;2023-01-24T07:50:27;3.40;99.90
29203;DHT22;16245;51.170;4.884;2023-01-24T07:52:53;3.40;99.90
29203;DHT22;16245;51.170;4.884;2023-01-24T07:55:20;3.40;99.90
29203;DHT22;16245;51.170;4.884;2023-01-24T07:57:46;3.40;99.90
29203;DHT22;16245;51.170;4.884;2023-01-24T08:00:13;3.50;99.90
29203;DHT22;16245;51.170;4.884;2023-01-24T08:02:43;3.50;99.90
29203;DHT22;16245;51.170;4.884;2023-01-24T08:05:09;3.50;99.90
29203;DHT22;16245;51.170;4.884;2023-01-24T08:07:35;3.50;99.90
29203;DHT22;16245;51.170;4.884;2023-01-24T08:10:00;3.60;99.90
29203;DHT22;16245;51.170;4.884;2023-01-24T08:12:26;3.50;99.90
29203;DHT22;16245;51.170;4.884;2023-01-24T08:14:52;3.60;99.90
29203;DHT22;16245;51.170;4.884;2023-01-24T08:17:18;3.60;99.90
29203;DHT22;16245;51.170;4.884;2023-01-24T08:19:44;3.60;99.90
29203;DHT22;16245;51.170;4.884;2023-01-24T08:22:09;3.60;99.90
29203;DHT22;16245;51.170;4.884;2023-01-24T08:24:36;3.50;99.90
29203;DHT22;16245;51.170;4.884;2023-01-24T08:27:03;3.60;99.90
29203;DHT22;16245;51.170;4.884;2023-01-24T08:29:29;3.60;99.90
29203;DHT22;16245;51.170;4.884;2023-01-24T08:31:55;3.60;99.90
29203;DHT22;16245;51.170;4.884;2023-01-24T08:34:21;3.60;99.90
29203;DHT22;16245;51.170;4.884;2023-01-24T08:36:46;3.60;99.90
29203;DHT22;16245;51.170;4.884;2023-01-24T08:39:12;3.80;99.90
29203;DHT22;16245;51.170;4.884;2023-01-24T08:41:38;3.80;99.90
29203;DHT22;16245;51.170;4.884;2023-01-24T08:44:04;3.80;99.90
29203;DHT22;16245;51.170;4.884;2023-01-24T08:46:31;3.70;99.90
29203;DHT22;16245;51.170;4.884;2023-01-24T08:48:57;3.70;99.90
29203;DHT22;16245;51.170;4.884;2023-01-24T08:51:31;3.70;99.90
29203;DHT22;16245;51.170;4.884;2023-01-24T08:53:57;3.80;99.90
29203;DHT22;16245;51.170;4.884;2023-01-24T08:56:23;3.70;99.90
29203;DHT22;16245;51.170;4.884;2023-01-24T08:58:48;3.70;99.90
29203;DHT22;16245;51.170;4.884;2023-01-24T09:01:14;3.70;99.90
29203;DHT22;16245;51.170;4.884;2023-01-24T09:03:40;3.60;99.90
29203;DHT22;16245;51.170;4.884;2023-01-24T09:06:06;3.60;99.90
29203;DHT22;16245;51.170;4.884;2023-01-24T09:08:32;3.70;99.90
29203;DHT22;16245;51.170;4.884;2023-01-24T09:10:59;3.80;99.90
29203;DHT22;16245;51.170;4.884;2023-01-24T09:13:25;3.70;99.90
29203;DHT22;16245;51.170;4.884;2023-01-24T09:15:51;3.70;99.90
29203;DHT22;16245;51.170;4.884;2023-01-24T09:18:16;3.70;99.90
29203;DHT22;16245;51.170;4.884;2023-01-24T09:20:42;3.70;99.90
29203;DHT22;16245;51.170;4.884;2023-01-24T09:23:10;3.70;99.90
29203;DHT22;16245;51.170;4.884;2023-01-24T09:25:37;3.70;99.90
29203;DHT22;16245;51.170;4.884;2023-01-24T09:28:03;3.70;99.90
29203;DHT22;16245;51.170;4.884;2023-01-24T09:30:29;3.80;99.90
29203;DHT22;16245;51.170;4.884;2023-01-24T09:32:55;3.80;99.90
29203;DHT22;16245;51.170;4.884;2023-01-24T09:35:20;3.80;99.90
29203;DHT22;16245;51.170;4.884;2023-01-24T09:37:46;3.80;99.90
29203;DHT22;16245;51.170;4.884;2023-01-24T09:40:24;3.80;99.90
29203;DHT22;16245;51.170;4.884;2023-01-24T09:43:58;3.90;99.90
29203;DHT22;16245;51.170;4.884;2023-01-24T09:46:00;3.90;99.90
29203;DHT22;16245;51.170;4.884;2023-01-24T09:48:32;3.80;99.90
29203;DHT22;16245;51.170;4.884;2023-01-24T09:51:03;3.90;99.90
29203;DHT22;16245;51.170;4.884;2023-01-24T09:53:39;3.90;99.90
29203;DHT22;16245;51.170;4.884;2023-01-24T09:56:06;3.90;99.90
29203;DHT22;16245;51.170;4.884;2023-01-24T09:58:41;3.90;99.90
29203;DHT22;16245;51.170;4.884;2023-01-24T10:01:12;3.90;99.90
29203;DHT22;16245;51.170;4.884;2023-01-24T10:03:39;3.90;99.90
29203;DHT22;16245;51.170;4.884;2023-01-24T10:06:14;3.90;99.90
29203;DHT22;16245;51.170;4.884;2023-01-24T10:14:20;4.10;99.90
29203;DHT22;16245;51.170;4.884;2023-01-24T10:22:20;4.00;99.90
29203;DHT22;16245;51.170;4.884;2023-01-24T10:25:00;4.10;99.90
29203;DHT22;16245;51.170;4.884;2023-01-24T10:27:31;4.10;99.90
29203;DHT22;16245;51.170;4.884;2023-01-24T10:30:02;4.20;99.90
29203;DHT22;16245;51.170;4.884;2023-01-24T10:32:32;4.10;99.90
29203;DHT22;16245;51.170;4.884;2023-01-24T10:35:11;4.10;99.90
29203;DHT22;16245;51.170;4.884;2023-01-24T10:37:38;4.10;99.90
29203;DHT22;16245;51.170;4.884;2023-01-24T10:40:12;4.20;99.90
29203;DHT22;16245;51.170;4.884;2023-01-24T10:42:38;4.10;99.90
29203;DHT22;16245;51.170;4.884;2023-01-24T10:48:23;4.10;99.90
29203;DHT22;16245;51.170;4.884;2023-01-24T10:50:52;4.10;99.90
29203;DHT22;16245;51.170;4.884;2023-01-24T10:53:26;4.10;99.90
29203;DHT22;16245;51.170;4.884;2023-01-24T10:56:01;4.20;99.90
29203;DHT22;16245;51.170;4.884;2023-01-24T11:01:18;4.20;99.90
29203;DHT22;16245;51.170;4.884;2023-01-24T11:03:46;4.30;99.90
29203;DHT22;16245;51.170;4.884;2023-01-24T11:06:39;4.20;99.90
29203;DHT22;16245;51.170;4.884;2023-01-24T11:09:16;4.30;99.90
29203;DHT22;16245;51.170;4.884;2023-01-24T11:11:51;4.30;99.90
29203;DHT22;16245;51.170;4.884;2023-01-24T11:14:20;4.30;99.90
29203;DHT22;16245;51.170;4.884;2023-01-24T11:16:49;4.30;99.90
29203;DHT22;16245;51.170;4.884;2023-01-24T11:19:26;4.20;99.90
29203;DHT22;16245;51.170;4.884;2023-01-24T11:21:58;4.10;99.90
29203;DHT22;16245;51.170;4.884;2023-01-24T11:24:24;4.20;99.90
29203;DHT22;16245;51.170;4.884;2023-01-24T11:29:28;4.30;99.90
29203;DHT22;16245;51.170;4.884;2023-01-24T11:31:56;4.20;99.90
29203;DHT22;16245;51.170;4.884;2023-01-24T11:39:57;4.30;99.90
29203;DHT22;16245;51.170;4.884;2023-01-24T11:42:54;4.30;99.90
29203;DHT22;16245;51.170;4.884;2023-01-24T11:45:26;4.30;99.90
29203;DHT22;16245;51.170;4.884;2023-01-24T11:51:09;4.40;99.90
29203;DHT22;16245;51.170;4.884;2023-01-24T11:54:01;4.30;99.90
29203;DHT22;16245;51.170;4.884;2023-01-24T12:13:03;4.40;99.90
29203;DHT22;16245;51.170;4.884;2023-01-24T12:20:59;4.40;99.90
29203;DHT22;16245;51.170;4.884;2023-01-24T12:26:23;4.40;99.90
29203;DHT22;16245;51.170;4.884;2023-01-24T12:29:52;4.40;99.90
29203;DHT22;16245;51.170;4.884;2023-01-24T12:32:09;4.40;99.90
29203;DHT22;16245;51.170;4.884;2023-01-24T12:37:34;4.40;99.90
29203;DHT22;16245;51.170;4.884;2023-01-24T12:40:35;4.40;99.90
29203;DHT22;16245;51.170;4.884;2023-01-24T12:43:09;4.50;99.90
29203;DHT22;16245;51.170;4.884;2023-01-24T12:45:43;4.50;99.90
29203;DHT22;16245;51.170;4.884;2023-01-24T12:48:40;4.50;99.90
29203;DHT22;16245;51.170;4.884;2023-01-24T12:51:19;4.60;99.90
29203;DHT22;16245;51.170;4.884;2023-01-24T12:59:24;4.40;99.90
29203;DHT22;16245;51.170;4.884;2023-01-24T13:12:59;4.50;99.90
29203;DHT22;16245;51.170;4.884;2023-01-24T13:21:21;4.50;99.90
29203;DHT22;16245;51.170;4.884;2023-01-24T13:24:20;4.40;99.90
29203;DHT22;16245;51.170;4.884;2023-01-24T13:27:00;4.50;99.90
29203;DHT22;16245;51.170;4.884;2023-01-24T13:29:36;4.50;99.90
29203;DHT22;16245;51.170;4.884;2023-01-24T13:32:16;4.40;99.90
29203;DHT22;16245;51.170;4.884;2023-01-24T13:34:49;4.40;99.90
29203;DHT22;16245;51.170;4.884;2023-01-24T13:37:27;4.30;99.90
29203;DHT22;16245;51.170;4.884;2023-01-24T13:42:41;4.40;99.90
29203;DHT22;16245;51.170;4.884;2023-01-24T13:48:42;4.50;99.90
29203;DHT22;16245;51.170;4.884;2023-01-24T13:54:08;4.40;99.90
29203;DHT22;16245;51.170;4.884;2023-01-24T13:59:39;4.30;99.90
29203;DHT22;16245;51.170;4.884;2023-01-24T14:02:31;4.40;99.90
29203;DHT22;16245;51.170;4.884;2023-01-24T14:04:58;4.40;99.90
29203;DHT22;16245;51.170;4.884;2023-01-24T14:07:36;4.40;99.90
29203;DHT22;16245;51.170;4.884;2023-01-24T14:10:04;4.50;99.90
29203;DHT22;16245;51.170;4.884;2023-01-24T14:12:36;4.40;99.90
29203;DHT22;16245;51.170;4.884;2023-01-24T14:23:10;4.40;99.90
29203;DHT22;16245;51.170;4.884;2023-01-24T14:28:31;4.30;99.90
29203;DHT22;16245;51.170;4.884;2023-01-24T14:31:26;4.20;99.90
29203;DHT22;16245;51.170;4.884;2023-01-24T14:34:43;4.10;99.90
29203;DHT22;16245;51.170;4.884;2023-01-24T14:37:10;4.20;99.90
29203;DHT22;16245;51.170;4.884;2023-01-24T14:39:36;4.20;99.90
29203;DHT22;16245;51.170;4.884;2023-01-24T14:42:11;4.20;99.90
29203;DHT22;16245;51.170;4.884;2023-01-24T14:44:39;4.20;99.90
29203;DHT22;16245;51.170;4.884;2023-01-24T14:47:18;4.20;99.90
29203;DHT22;16245;51.170;4.884;2023-01-24T14:49:54;4.20;99.90
29203;DHT22;16245;51.170;4.884;2023-01-24T14:52:23;4.20;99.90
29203;DHT22;16245;51.170;4.884;2023-01-24T14:57:26;4.00;99.90
29203;DHT22;16245;51.170;4.884;2023-01-24T15:00:21;4.00;99.90
29203;DHT22;16245;51.170;4.884;2023-01-24T15:02:56;4.00;99.90
29203;DHT22;16245;51.170;4.884;2023-01-24T15:05:32;4.00;99.90
29203;DHT22;16245;51.170;4.884;2023-01-24T15:08:00;4.00;99.90
29203;DHT22;16245;51.170;4.884;2023-01-24T15:10:28;4.00;99.90
29203;DHT22;16245;51.170;4.884;2023-01-24T15:12:56;4.00;99.90
29203;DHT22;16245;51.170;4.884;2023-01-24T15:15:23;3.90;99.90
29203;DHT22;16245;51.170;4.884;2023-01-24T15:17:50;3.90;99.90
29203;DHT22;16245;51.170;4.884;2023-01-24T15:20:20;3.90;99.90
29203;DHT22;16245;51.170;4.884;2023-01-24T15:22:52;3.90;99.90
29203;DHT22;16245;51.170;4.884;2023-01-24T15:25:36;3.90;99.90
29203;DHT22;16245;51.170;4.884;2023-01-24T15:28:11;3.90;99.90
29203;DHT22;16245;51.170;4.884;2023-01-24T15:30:59;3.80;99.90
29203;DHT22;16245;51.170;4.884;2023-01-24T15:33:42;3.80;99.90
29203;DHT22;16245;51.170;4.884;2023-01-24T15:36:27;3.90;99.90
29203;DHT22;16245;51.170;4.884;2023-01-24T15:38:56;3.90;99.90
29203;DHT22;16245;51.170;4.884;2023-01-24T15:41:35;3.90;99.90
29203;DHT22;16245;51.170;4.884;2023-01-24T15:44:21;3.90;99.90
29203;DHT22;16245;51.170;4.884;2023-01-24T15:46:57;3.90;99.90
29203;DHT22;16245;51.170;4.884;2023-01-24T15:50:01;3.80;99.90
29203;DHT22;16245;51.170;4.884;2023-01-24T15:55:37;3.70;99.90
29203;DHT22;16245;51.170;4.884;2023-01-24T15:58:02;3.80;99.90
29203;DHT22;16245;51.170;4.884;2023-01-24T16:00:28;3.70;99.90
29203;DHT22;16245;51.170;4.884;2023-01-24T16:02:54;3.70;99.90
29203;DHT22;16245;51.170;4.884;2023-01-24T16:05:20;3.80;99.90
29203;DHT22;16245;51.170;4.884;2023-01-24T16:07:47;3.80;99.90
29203;DHT22;16245;51.170;4.884;2023-01-24T16:10:16;3.80;99.90
29203;DHT22;16245;51.170;4.884;2023-01-24T16:12:43;3.80;99.90
29203;DHT22;16245;51.170;4.884;2023-01-24T16:15:15;3.80;99.90
29203;DHT22;16245;51.170;4.884;2023-01-24T16:17:41;3.80;99.90
29203;DHT22;16245;51.170;4.884;2023-01-24T16:20:24;3.70;99.90
29203;DHT22;16245;51.170;4.884;2023-01-24T16:22:52;3.70;99.90
29203;DHT22;16245;51.170;4.884;2023-01-24T16:25:19;3.70;99.90
29203;DHT22;16245;51.170;4.884;2023-01-24T16:27:46;3.60;99.90
29203;DHT22;16245;51.170;4.884;2023-01-24T16:30:23;3.60;99.90
29203;DHT22;16245;51.170;4.884;2023-01-24T16:32:51;3.60;99.90
29203;DHT22;16245;51.170;4.884;2023-01-24T16:35:17;3.70;99.90
29203;DHT22;16245;51.170;4.884;2023-01-24T16:37:43;3.60;99.90
29203;DHT22;16245;51.170;4.884;2023-01-24T16:40:12;3.60;99.90
29203;DHT22;16245;51.170;4.884;2023-01-24T16:42:40;3.60;99.90
29203;DHT22;16245;51.170;4.884;2023-01-24T16:45:12;3.60;99.90
29203;DHT22;16245;51.170;4.884;2023-01-24T16:47:38;3.70;99.90
29203;DHT22;16245;51.170;4.884;2023-01-24T16:50:04;3.60;99.90
29203;DHT22;16245;51.170;4.884;2023-01-24T16:52:30;3.50;99.90
29203;DHT22;16245;51.170;4.884;2023-01-24T16:54:55;3.60;99.90
29203;DHT22;16245;51.170;4.884;2023-01-24T16:57:21;3.60;99.90
29203;DHT22;16245;51.170;4.884;2023-01-24T16:59:48;3.60;99.90
29203;DHT22;16245;51.170;4.884;2023-01-24T17:02:14;3.70;99.90
29203;DHT22;16245;51.170;4.884;2023-01-24T17:04:39;3.70;99.90
29203;DHT22;16245;51.170;4.884;2023-01-24T17:07:05;3.60;99.90
29203;DHT22;16245;51.170;4.884;2023-01-24T17:09:31;3.50;99.90
29203;DHT22;16245;51.170;4.884;2023-01-24T17:11:58;3.50;99.90
29203;DHT22;16245;51.170;4.884;2023-01-24T17:14:24;3.50;99.90
29203;DHT22;16245;51.170;4.884;2023-01-24T17:16:49;3.50;99.90
29203;DHT22;16245;51.170;4.884;2023-01-24T17:19:15;3.50;99.90
29203;DHT22;16245;51.170;4.884;2023-01-24T17:21:41;3.60;99.90
29203;DHT22;16245;51.170;4.884;2023-01-24T17:24:07;3.60;99.90
29203;DHT22;16245;51.170;4.884;2023-01-24T17:26:33;3.50;99.90
29203;DHT22;16245;51.170;4.884;2023-01-24T17:28:59;3.60;99.90
29203;DHT22;16245;51.170;4.884;2023-01-24T17:31:24;3.60;99.90
29203;DHT22;16245;51.170;4.884;2023-01-24T17:33:52;3.70;99.90
29203;DHT22;16245;51.170;4.884;2023-01-24T17:36:18;3.60;99.90
29203;DHT22;16245;51.170;4.884;2023-01-24T17:38:44;3.60;99.90
29203;DHT22;16245;51.170;4.884;2023-01-24T17:41:14;3.60;99.90
29203;DHT22;16245;51.170;4.884;2023-01-24T17:43:40;3.60;99.90
29203;DHT22;16245;51.170;4.884;2023-01-24T17:46:06;3.60;99.90
29203;DHT22;16245;51.170;4.884;2023-01-24T17:48:32;3.60;99.90
29203;DHT22;16245;51.170;4.884;2023-01-24T17:50:59;3.50;99.90
29203;DHT22;16245;51.170;4.884;2023-01-24T17:53:29;3.50;99.90
29203;DHT22;16245;51.170;4.884;2023-01-24T17:55:55;3.50;99.90
29203;DHT22;16245;51.170;4.884;2023-01-24T17:58:21;3.50;99.90
29203;DHT22;16245;51.170;4.884;2023-01-24T18:00:46;3.50;99.90
29203;DHT22;16245;51.170;4.884;2023-01-24T18:03:12;3.40;99.90
29203;DHT22;16245;51.170;4.884;2023-01-24T18:05:38;3.40;99.90